Terminal Aerodrome Forecast
Issued by NWS

Home | Current Version | Previous Version | Text Only | Print | Product List | Glossary On
Versions: 1 2 3 4 5 6 7 8 9 10 11 12 13 14 15 16
000
FTUS44 KOUN 290111 AAA
TAFWWR
TAF AMD
KWWR 290111Z 2901/2924 05014G22KT 6SM -TSRA BR FEW004 OVC050CB
     FM290400 05012KT 3SM BR VCSH OVC004
     FM291200 01016G24KT 3SM -RA BR OVC007=

USA.gov is the U.S. government's official web portal to all federal, state and local government web resources and services.